aviador You're here:

KEAU Decoded Metar

EAU CLAIRE in WI, USA
Report Time2017-11-20 12:56:00
UTC Time2017-11-20 13:34:42
Flight Rules vfr VFR
WindCalm
Visibility9999 m
Phenomena:N/A
Clouds:N/A
CeilingNone
Temp-6°C (ISA -19)
Dew Point-6°C (100% RH)
AAT-8.7°C
QNH1006 hPa
Density Alt-1,168 ft
Elevation906 ft
Report Wrong Elevation
Raw Report
KEAU 201256Z 00000KT 9SM CLR M06/M06 A2972 RMK AO2 SLP076 I1000
T10561061=

Extra information for KEAU:More info

Metar Taf Metar & Taf Last 4 Metars F.Rules Stats Wind Profile Meteogram Temp Stats Airport Information Weather charts Add Link Nearby VenuesMetar ALERT Operation Metar Decoded Social comments

AIRNAV info for KEAU